Time;durP1;ratioP1;P1;durP2;ratioP2;P2;SDS_P1;SDS_P2;PMS_P1;PMS_P2;Temp;Humidity;BMP_temperature;BMP_pressure;BME280_temperature;BME280_humidity;BME280_pressure;Samples;Min_cycle;Max_cycle;Signal;HPM_P1;HPM_P2
2022/11/07 00:02:13;;;;;;;3.57;3.30;;;9.00;99.90;;;;;;5053923;28;20449;-81
2022/11/07 00:04:39;;;;;;;3.90;3.60;;;9.10;99.90;;;;;;5053411;28;20414;-82
2022/11/07 00:07:05;;;;;;;4.23;3.50;;;9.00;99.90;;;;;;5053299;28;20434;-72
2022/11/07 00:09:32;;;;;;;4.03;3.63;;;9.00;99.90;;;;;;5053386;28;20420;-82
2022/11/07 00:11:57;;;;;;;3.30;3.10;;;9.00;99.90;;;;;;5053242;28;20435;-81
2022/11/07 00:14:23;;;;;;;3.73;3.43;;;9.00;99.90;;;;;;5052350;28;20456;-71
2022/11/07 00:16:49;;;;;;;4.20;3.90;;;9.00;99.90;;;;;;5052249;28;20243;-71
2022/11/07 00:19:22;;;;;;;4.30;4.00;;;9.10;99.90;;;;;;5054030;28;20166;-81
2022/11/07 00:21:48;;;;;;;3.63;3.23;;;9.20;99.90;;;;;;5053122;28;20755;-81
2022/11/07 00:24:18;;;;;;;3.70;3.50;;;9.20;99.90;;;;;;5053183;28;20960;-71
2022/11/07 00:26:45;;;;;;;3.97;3.53;;;9.30;99.90;;;;;;5053758;28;20794;-71
2022/11/07 00:29:16;;;;;;;4.03;3.63;;;9.20;99.90;;;;;;5053776;28;20857;-77
2022/11/07 00:31:42;;;;;;;4.30;3.67;;;9.20;99.90;;;;;;5052689;28;20407;-81
2022/11/07 00:34:08;;;;;;;4.53;4.17;;;9.20;99.90;;;;;;5052579;28;20477;-77
2022/11/07 00:36:33;;;;;;;3.80;3.50;;;9.20;99.90;;;;;;5052359;28;20200;-80
2022/11/07 00:38:59;;;;;;;3.80;3.50;;;9.20;99.90;;;;;;5052283;28;20224;-73
2022/11/07 00:41:25;;;;;;;4.23;3.90;;;9.30;99.90;;;;;;5052338;28;20150;-81
2022/11/07 00:43:51;;;;;;;4.70;4.20;;;9.30;99.90;;;;;;5050936;28;20272;-72
2022/11/07 00:46:18;;;;;;;4.80;4.00;;;9.30;99.90;;;;;;5053592;28;20198;-81
2022/11/07 00:48:44;;;;;;;4.97;3.60;;;9.30;99.90;;;;;;5053691;28;20405;-72
2022/11/07 00:51:13;;;;;;;4.73;4.33;;;9.40;99.90;;;;;;5053184;28;20416;-80
2022/11/07 00:53:39;;;;;;;4.90;3.90;;;9.40;99.90;;;;;;5049955;28;20792;-80
2022/11/07 00:56:08;;;;;;;5.00;4.60;;;9.40;99.90;;;;;;5053729;28;20433;-80
2022/11/07 00:58:35;;;;;;;4.17;3.87;;;9.40;99.90;;;;;;5052088;28;20388;-80
2022/11/07 01:01:08;;;;;;;5.30;4.40;;;9.40;99.90;;;;;;5052429;28;20479;-72
2022/11/07 01:06:17;;;;;;;4.47;4.03;;;9.50;99.90;;;;;;5053213;28;20426;-79
2022/11/07 01:08:43;;;;;;;6.47;5.43;;;9.50;99.90;;;;;;5053364;28;20400;-79
2022/11/07 01:11:09;;;;;;;5.40;4.90;;;9.50;99.90;;;;;;5051957;28;20679;-80
2022/11/07 01:13:35;;;;;;;8.77;4.90;;;9.50;99.90;;;;;;5051891;28;20602;-78
2022/11/07 01:16:01;;;;;;;4.77;4.37;;;9.60;99.90;;;;;;5051483;28;20418;-73
2022/11/07 01:18:27;;;;;;;5.10;4.60;;;9.60;99.90;;;;;;5053392;28;20418;-78
2022/11/07 01:20:53;;;;;;;4.90;4.50;;;9.60;99.90;;;;;;5055308;28;20929;-79
2022/11/07 01:23:18;;;;;;;4.80;4.40;;;9.70;99.90;;;;;;5052317;28;20272;-78
2022/11/07 01:25:44;;;;;;;4.53;4.23;;;9.70;99.90;;;;;;5052303;28;20183;-79
2022/11/07 01:28:11;;;;;;;6.33;4.83;;;9.70;99.90;;;;;;5053070;28;20168;-72
2022/11/07 01:30:42;;;;;;;5.13;4.67;;;9.70;99.90;;;;;;5050763;28;20439;-80
2022/11/07 01:33:07;;;;;;;4.93;4.50;;;9.70;99.90;;;;;;5052155;28;20887;-79
2022/11/07 01:35:34;;;;;;;7.60;5.50;;;9.70;99.90;;;;;;5051924;28;20547;-79
2022/11/07 01:38:00;;;;;;;5.80;5.30;;;9.70;99.90;;;;;;5050877;28;20451;-78
2022/11/07 01:40:26;;;;;;;4.40;4.00;;;9.80;99.90;;;;;;5053003;28;20398;-80
2022/11/07 01:42:52;;;;;;;5.10;4.40;;;9.80;99.90;;;;;;5067526;28;20174;-80
2022/11/07 01:45:25;;;;;;;5.37;4.83;;;9.80;99.90;;;;;;5050732;28;20729;-78
2022/11/07 01:47:57;;;;;;;7.70;5.53;;;9.80;99.90;;;;;;5052813;28;20171;-73
2022/11/07 01:50:23;;;;;;;5.33;4.93;;;9.80;99.90;;;;;;5051484;28;20943;-78
2022/11/07 01:52:51;;;;;;;8.10;5.40;;;9.90;99.90;;;;;;5051894;28;20467;-74
2022/11/07 01:55:22;;;;;;;6.40;4.97;;;9.90;99.90;;;;;;5051776;28;20443;-73
2022/11/07 01:57:58;;;;;;;6.23;4.80;;;9.90;99.90;;;;;;5052936;28;20403;-73
2022/11/07 02:00:25;;;;;;;5.40;4.90;;;9.90;99.90;;;;;;5051831;28;20457;-78
2022/11/07 02:02:56;;;;;;;8.03;5.83;;;9.90;99.90;;;;;;5052931;28;20404;-73
2022/11/07 02:05:37;;;;;;;8.40;7.00;;;9.90;99.90;;;;;;5051815;28;20412;-73
2022/11/07 02:08:06;;;;;;;9.73;5.80;;;9.90;99.90;;;;;;5051021;28;20456;-78
2022/11/07 02:10:34;;;;;;;7.00;6.40;;;10.00;99.90;;;;;;5050531;28;20432;-78
2022/11/07 02:13:01;;;;;;;6.83;6.17;;;10.00;99.90;;;;;;5052782;28;20382;-79
2022/11/07 02:15:27;;;;;;;6.90;6.20;;;10.00;99.90;;;;;;5055061;28;20440;-79
2022/11/07 02:17:54;;;;;;;7.50;5.63;;;10.00;99.90;;;;;;5056224;28;20491;-72
2022/11/07 02:20:20;;;;;;;7.47;5.37;;;10.00;99.90;;;;;;5055154;28;20430;-73
2022/11/07 02:23:08;;;;;;;7.43;6.13;;;10.10;99.90;;;;;;5055192;28;20752;-72
2022/11/07 02:25:35;;;;;;;5.97;5.20;;;10.10;99.90;;;;;;5046612;28;20668;-78
2022/11/07 02:28:05;;;;;;;6.17;5.73;;;10.10;99.90;;;;;;5054789;28;20440;-77
2022/11/07 02:30:33;;;;;;;19.13;6.87;;;10.10;99.90;;;;;;5055104;28;20456;-71
2022/11/07 02:32:59;;;;;;;7.00;6.40;;;10.00;99.90;;;;;;5054922;28;20429;-78
2022/11/07 02:35:44;;;;;;;8.40;6.03;;;10.10;99.90;;;;;;5054965;28;20472;-80
2022/11/07 02:38:12;;;;;;;6.67;5.63;;;10.10;99.90;;;;;;5055755;28;20479;-72
2022/11/07 02:40:38;;;;;;;7.23;6.53;;;10.10;99.90;;;;;;5070246;28;20869;-72
2022/11/07 02:43:06;;;;;;;8.67;5.50;;;10.10;99.90;;;;;;5055897;28;20405;-72
2022/11/07 02:45:36;;;;;;;6.80;6.23;;;10.10;99.90;;;;;;5054349;28;20971;-79
2022/11/07 02:48:01;;;;;;;6.30;5.53;;;10.10;99.90;;;;;;5054712;28;20425;-76
2022/11/07 02:50:27;;;;;;;10.23;5.90;;;10.10;99.90;;;;;;5054595;28;20773;-74
2022/11/07 02:52:53;;;;;;;7.23;6.60;;;10.10;99.90;;;;;;5055755;28;20416;-72
2022/11/07 02:55:19;;;;;;;6.63;6.00;;;10.20;99.90;;;;;;5053299;28;20303;-72
2022/11/07 02:57:44;;;;;;;5.70;5.23;;;10.10;99.90;;;;;;5055459;28;20177;-79
2022/11/07 03:00:12;;;;;;;6.37;5.80;;;10.20;99.90;;;;;;5054337;28;20182;-71
2022/11/07 03:02:38;;;;;;;5.90;5.40;;;10.20;99.90;;;;;;5055308;28;20167;-78
2022/11/07 03:05:05;;;;;;;9.10;6.37;;;10.30;99.90;;;;;;5054329;28;20391;-78
2022/11/07 03:07:32;;;;;;;7.83;6.37;;;10.30;99.90;;;;;;5054727;28;20476;-78
2022/11/07 03:09:58;;;;;;;7.00;5.67;;;10.30;99.90;;;;;;5054532;28;20452;-78
2022/11/07 03:12:23;;;;;;;6.03;5.00;;;10.30;99.90;;;;;;5054009;28;20178;-74
2022/11/07 03:14:49;;;;;;;6.27;5.80;;;10.30;99.90;;;;;;5052830;28;20241;-73
2022/11/07 03:17:15;;;;;;;5.40;4.87;;;10.30;99.90;;;;;;5055153;28;20187;-79
2022/11/07 03:19:41;;;;;;;10.23;5.00;;;10.20;99.90;;;;;;5050437;28;20428;-73
2022/11/07 03:22:06;;;;;;;8.17;6.17;;;10.20;99.90;;;;;;5051604;28;20186;-72
2022/11/07 03:24:32;;;;;;;5.20;4.70;;;10.20;99.90;;;;;;5052590;28;20647;-76
2022/11/07 03:26:58;;;;;;;6.17;5.47;;;10.20;99.90;;;;;;5053911;28;20678;-77
2022/11/07 03:29:24;;;;;;;6.37;4.80;;;10.20;99.90;;;;;;5054162;28;20186;-77
2022/11/07 03:31:49;;;;;;;6.87;4.90;;;10.20;99.90;;;;;;5054810;28;20905;-72
2022/11/07 03:34:15;;;;;;;6.40;5.80;;;10.30;99.90;;;;;;5052630;28;20206;-72
2022/11/07 03:36:40;;;;;;;5.27;4.77;;;10.30;99.90;;;;;;5054395;28;20205;-78
2022/11/07 03:39:06;;;;;;;6.50;5.37;;;10.40;99.90;;;;;;5052768;28;20175;-72
2022/11/07 03:41:32;;;;;;;5.30;4.80;;;10.40;99.90;;;;;;5054674;28;20720;-77
2022/11/07 03:43:57;;;;;;;7.23;5.47;;;10.40;99.90;;;;;;5053948;28;20185;-73
2022/11/07 03:46:23;;;;;;;5.73;4.83;;;10.50;99.90;;;;;;5053693;28;20331;-73
2022/11/07 03:48:49;;;;;;;4.90;4.50;;;10.50;99.90;;;;;;5053509;28;20239;-77
2022/11/07 03:51:14;;;;;;;4.97;4.57;;;10.50;99.90;;;;;;5054555;28;20183;-77
2022/11/07 03:53:40;;;;;;;5.27;4.77;;;10.50;99.90;;;;;;5053376;28;20174;-73
2022/11/07 03:56:10;;;;;;;7.90;4.63;;;10.50;99.90;;;;;;5054165;28;20790;-78
2022/11/07 03:58:37;;;;;;;5.13;4.20;;;10.60;99.90;;;;;;5054472;28;20212;-78
2022/11/07 04:01:04;;;;;;;5.80;5.20;;;10.60;99.90;;;;;;5052058;28;20410;-74
2022/11/07 04:03:30;;;;;;;5.10;4.60;;;10.60;99.90;;;;;;5053977;28;20488;-77
2022/11/07 04:05:58;;;;;;;8.10;5.13;;;10.60;99.90;;;;;;5052652;28;20426;-77
2022/11/07 04:08:24;;;;;;;6.10;5.50;;;10.60;99.90;;;;;;5044504;28;20213;-72
2022/11/07 04:10:50;;;;;;;5.43;4.90;;;10.60;99.90;;;;;;5066777;28;20483;-77
2022/11/07 04:18:34;;;;;;;4.80;4.50;;;10.70;99.90;;;;;;5054011;28;20395;-72
2022/11/07 04:21:00;;;;;;;6.47;5.27;;;10.70;99.90;;;;;;5053193;28;20419;-73
2022/11/07 04:23:25;;;;;;;6.10;4.80;;;10.70;99.90;;;;;;5069331;28;20221;-79
2022/11/07 04:28:35;;;;;;;8.67;5.00;;;10.80;99.90;;;;;;5053583;28;20173;-78
2022/11/07 04:31:01;;;;;;;5.57;5.07;;;10.80;99.90;;;;;;5051818;28;20853;-80
2022/11/07 04:33:26;;;;;;;5.80;3.90;;;10.80;99.90;;;;;;5053335;28;20241;-73
2022/11/07 04:35:52;;;;;;;8.27;6.00;;;10.90;99.90;;;;;;5052013;28;20190;-72
2022/11/07 04:38:18;;;;;;;6.37;4.50;;;10.90;99.90;;;;;;5053470;28;20205;-72
2022/11/07 04:40:43;;;;;;;4.87;4.27;;;10.90;99.90;;;;;;5052674;28;20175;-77
2022/11/07 04:43:09;;;;;;;16.13;4.67;;;10.90;99.90;;;;;;5053593;28;20200;-77
2022/11/07 04:45:37;;;;;;;6.40;4.80;;;10.90;99.90;;;;;;5051723;28;20221;-73
2022/11/07 04:48:03;;;;;;;8.00;4.50;;;11.00;99.90;;;;;;5053074;28;20704;-72
2022/11/07 04:50:28;;;;;;;4.77;4.40;;;11.00;99.90;;;;;;5052580;28;20404;-78
2022/11/07 04:52:55;;;;;;;6.53;4.07;;;11.00;99.90;;;;;;5053516;28;20876;-73
2022/11/07 04:55:26;;;;;;;4.97;4.47;;;11.00;99.90;;;;;;5052637;28;20193;-72
2022/11/07 04:57:52;;;;;;;4.30;4.00;;;10.90;99.90;;;;;;5053355;28;20405;-72
2022/11/07 05:00:19;;;;;;;5.60;5.20;;;10.90;99.90;;;;;;5051887;28;20769;-77
2022/11/07 05:02:46;;;;;;;5.17;4.77;;;10.90;99.90;;;;;;5052487;28;20408;-75
2022/11/07 05:05:12;;;;;;;5.43;4.33;;;10.90;99.90;;;;;;5051354;28;20423;-76
2022/11/07 05:07:38;;;;;;;6.53;5.10;;;10.90;99.90;;;;;;5051286;28;20402;-78
2022/11/07 05:10:06;;;;;;;5.43;4.93;;;10.90;99.90;;;;;;5052290;28;20407;-74
2022/11/07 05:12:31;;;;;;;5.23;4.73;;;11.00;99.90;;;;;;5055059;28;20399;-78
2022/11/07 05:14:58;;;;;;;8.63;4.60;;;11.00;99.90;;;;;;5072118;28;20425;-78
2022/11/07 05:17:28;;;;;;;6.63;5.03;;;11.00;99.90;;;;;;5052490;28;20201;-78
2022/11/07 05:19:54;;;;;;;4.90;4.47;;;10.90;99.90;;;;;;5053136;28;20382;-78
2022/11/07 05:25:20;;;;;;;5.83;4.37;;;10.90;99.90;;;;;;5028303;28;20174;-75
2022/11/07 05:27:46;;;;;;;4.00;3.63;;;10.90;99.90;;;;;;5048300;28;20906;-74
2022/11/07 05:30:12;;;;;;;5.10;4.60;;;10.90;99.90;;;;;;5052075;28;20249;-74
2022/11/07 05:32:39;;;;;;;6.07;5.10;;;10.80;99.90;;;;;;5052148;28;20249;-77
2022/11/07 05:35:05;;;;;;;4.53;4.13;;;10.80;99.90;;;;;;5050769;28;20453;-74
2022/11/07 05:37:31;;;;;;;6.60;4.30;;;10.80;99.90;;;;;;5051187;28;20427;-76
2022/11/07 05:39:57;;;;;;;4.30;3.90;;;10.80;99.90;;;;;;5052888;28;20166;-78
2022/11/07 05:42:22;;;;;;;5.13;4.63;;;10.80;99.90;;;;;;5052616;28;20574;-79
2022/11/07 05:44:48;;;;;;;5.73;4.50;;;10.80;99.90;;;;;;5051399;28;20639;-74
2022/11/07 05:47:14;;;;;;;8.00;4.50;;;10.80;99.90;;;;;;5051976;28;20281;-73
2022/11/07 05:49:39;;;;;;;4.43;4.03;;;10.80;99.90;;;;;;5055175;28;20600;-79
2022/11/07 05:52:05;;;;;;;8.23;4.27;;;10.80;99.90;;;;;;5055272;28;20532;-78
2022/11/07 05:54:31;;;;;;;5.37;4.13;;;10.70;99.90;;;;;;5055604;28;20205;-74
2022/11/07 05:56:58;;;;;;;4.63;4.10;;;10.70;99.90;;;;;;5055589;28;20191;-78
2022/11/07 05:59:24;;;;;;;7.20;4.40;;;10.70;99.90;;;;;;5055821;28;20395;-78
2022/11/07 06:01:51;;;;;;;4.03;3.70;;;10.80;99.90;;;;;;5056261;28;20408;-78
2022/11/07 06:04:16;;;;;;;8.80;4.80;;;10.80;99.90;;;;;;5054587;28;20429;-79
2022/11/07 06:06:42;;;;;;;4.40;4.10;;;10.80;99.90;;;;;;5055631;28;20424;-78
2022/11/07 06:09:08;;;;;;;5.00;4.33;;;10.80;99.90;;;;;;5056650;28;20181;-74
2022/11/07 06:11:33;;;;;;;6.23;4.23;;;10.80;99.90;;;;;;5056348;28;20166;-79
2022/11/07 06:13:59;;;;;;;4.83;3.70;;;10.80;99.90;;;;;;5054948;28;20201;-81
2022/11/07 06:16:26;;;;;;;7.70;4.00;;;10.70;99.90;;;;;;5054422;28;20258;-74
2022/11/07 06:18:51;;;;;;;9.13;4.30;;;10.70;99.90;;;;;;5072020;28;20206;-79
2022/11/07 06:21:17;;;;;;;4.23;2.77;;;10.70;99.90;;;;;;5055822;28;20836;-74
2022/11/07 06:23:44;;;;;;;5.73;4.50;;;10.70;99.90;;;;;;5055432;28;20177;-78
2022/11/07 06:26:10;;;;;;;4.67;4.27;;;10.70;99.90;;;;;;5055001;28;20447;-78
2022/11/07 06:28:35;;;;;;;7.60;4.00;;;10.80;99.90;;;;;;5056012;28;20925;-73
2022/11/07 06:31:02;;;;;;;5.80;4.27;;;10.80;99.90;;;;;;5056160;28;20171;-73
2022/11/07 06:33:31;;;;;;;4.40;3.90;;;10.90;99.90;;;;;;5055590;28;20182;-78
2022/11/07 06:36:08;;;;;;;4.37;3.97;;;10.90;99.90;;;;;;5052893;28;20459;-76
2022/11/07 06:38:35;;;;;;;5.87;4.00;;;10.90;99.90;;;;;;5055733;28;20458;-78
2022/11/07 06:41:09;;;;;;;4.53;4.10;;;11.00;99.90;;;;;;5055291;28;20396;-78
2022/11/07 06:43:35;;;;;;;7.20;4.07;;;10.90;99.90;;;;;;5056857;28;20384;-75
2022/11/07 06:46:06;;;;;;;4.93;4.00;;;10.90;99.90;;;;;;5054351;28;20424;-78
2022/11/07 06:48:32;;;;;;;5.27;3.30;;;11.00;99.90;;;;;;5055595;28;20167;-74
2022/11/07 06:51:00;;;;;;;3.97;3.57;;;10.90;99.90;;;;;;5054387;28;20463;-74
2022/11/07 06:53:26;;;;;;;6.37;4.67;;;10.90;99.90;;;;;;5054615;28;20734;-78
2022/11/07 06:55:53;;;;;;;6.00;4.07;;;11.00;99.90;;;;;;5053861;28;20561;-77
2022/11/07 06:58:19;;;;;;;4.07;3.67;;;11.00;99.90;;;;;;5053273;28;20752;-77
2022/11/07 07:00:45;;;;;;;5.10;3.53;;;11.00;99.90;;;;;;5054986;28;20376;-78
2022/11/07 07:03:11;;;;;;;7.57;3.37;;;11.00;99.90;;;;;;5055279;28;20383;-78
2022/11/07 07:05:37;;;;;;;5.20;3.70;;;11.00;99.90;;;;;;5054459;28;20218;-79
2022/11/07 07:08:04;;;;;;;8.70;3.70;;;11.00;99.90;;;;;;5054864;28;20477;-77
2022/11/07 07:10:33;;;;;;;7.13;4.20;;;11.00;99.90;;;;;;5055346;28;20177;-75
2022/11/07 07:13:00;;;;;;;5.17;3.43;;;11.00;99.90;;;;;;5054383;28;20415;-79
2022/11/07 07:15:26;;;;;;;3.13;2.83;;;11.00;99.90;;;;;;5053814;28;20460;-74
2022/11/07 07:17:51;;;;;;;7.63;4.10;;;11.00;99.90;;;;;;5055138;28;20421;-74
2022/11/07 07:20:20;;;;;;;8.57;3.77;;;11.00;99.90;;;;;;5054962;28;20228;-75
2022/11/07 07:22:46;;;;;;;5.33;3.73;;;11.00;99.90;;;;;;5053578;28;20179;-77
2022/11/07 07:25:11;;;;;;;3.63;3.33;;;11.00;99.90;;;;;;5053460;28;20443;-77
2022/11/07 07:27:37;;;;;;;2.90;2.80;;;11.00;99.90;;;;;;5055210;28;20177;-75
2022/11/07 07:30:03;;;;;;;7.17;4.53;;;11.10;99.90;;;;;;5054183;28;20190;-73
2022/11/07 07:32:29;;;;;;;4.93;3.70;;;11.10;99.90;;;;;;5054404;28;20180;-74
2022/11/07 07:34:54;;;;;;;7.03;3.20;;;11.10;99.90;;;;;;5053425;28;20481;-74
2022/11/07 07:37:20;;;;;;;8.13;3.00;;;11.20;99.90;;;;;;5054654;28;20235;-78
2022/11/07 07:39:45;;;;;;;2.87;2.73;;;11.20;99.90;;;;;;5054869;28;20163;-78
2022/11/07 07:42:11;;;;;;;8.03;4.00;;;11.30;99.90;;;;;;5054607;28;20213;-77
2022/11/07 07:44:37;;;;;;;4.20;3.73;;;11.30;99.90;;;;;;5052490;28;20278;-80
2022/11/07 07:47:03;;;;;;;7.47;3.60;;;11.40;99.90;;;;;;5054433;28;20240;-78
2022/11/07 07:49:28;;;;;;;6.03;3.50;;;11.40;99.90;;;;;;5052819;28;20409;-79
2022/11/07 07:51:54;;;;;;;6.97;3.73;;;11.40;99.90;;;;;;5053472;28;20175;-78
2022/11/07 07:54:20;;;;;;;3.73;3.10;;;11.50;99.90;;;;;;5053508;28;20233;-78
2022/11/07 07:56:46;;;;;;;3.17;2.97;;;11.50;99.90;;;;;;5054155;28;20568;-79
2022/11/07 07:59:11;;;;;;;3.30;3.10;;;11.50;99.90;;;;;;5053364;28;20167;-78
2022/11/07 08:01:37;;;;;;;4.80;2.60;;;11.60;99.90;;;;;;5054410;28;20228;-75
2022/11/07 08:04:03;;;;;;;6.80;3.40;;;11.60;99.90;;;;;;5053444;28;20552;-80
2022/11/07 08:06:29;;;;;;;6.53;3.83;;;11.60;99.90;;;;;;5052644;28;20202;-80
2022/11/07 08:08:55;;;;;;;8.97;3.70;;;11.60;99.90;;;;;;5051522;28;20640;-74
2022/11/07 08:11:20;;;;;;;7.33;3.07;;;11.70;99.90;;;;;;5050797;28;20561;-78
2022/11/07 08:13:46;;;;;;;7.03;2.97;;;11.70;99.90;;;;;;5053264;28;20220;-74
2022/11/07 08:16:12;;;;;;;7.73;3.63;;;11.60;99.90;;;;;;5054157;28;20209;-73
2022/11/07 08:18:39;;;;;;;4.67;3.00;;;11.70;99.90;;;;;;5052135;28;20584;-72
2022/11/07 08:21:06;;;;;;;6.10;3.57;;;11.70;99.90;;;;;;5052087;28;20175;-80
2022/11/07 08:23:33;;;;;;;8.10;3.83;;;11.70;99.90;;;;;;5050143;28;20415;-79
2022/11/07 08:26:01;;;;;;;6.00;3.60;;;11.80;99.90;;;;;;5052153;28;20823;-78
2022/11/07 08:28:29;;;;;;;7.90;3.67;;;11.70;99.90;;;;;;5050950;28;20406;-77
2022/11/07 08:30:59;;;;;;;12.43;3.50;;;11.80;99.90;;;;;;5052169;28;20413;-79
2022/11/07 08:33:25;;;;;;;3.03;2.83;;;11.80;99.90;;;;;;5053595;28;20808;-79
2022/11/07 08:35:56;;;;;;;5.83;3.47;;;11.90;99.90;;;;;;5052999;28;20475;-80
2022/11/07 08:38:22;;;;;;;10.57;3.43;;;11.90;99.90;;;;;;5052169;28;20424;-80
2022/11/07 08:40:50;;;;;;;6.53;2.60;;;12.00;99.90;;;;;;5053650;28;20505;-77
2022/11/07 08:43:17;;;;;;;7.30;4.03;;;12.10;99.90;;;;;;5053356;28;20480;-80
2022/11/07 08:45:43;;;;;;;3.03;2.80;;;12.10;99.90;;;;;;5052634;28;20808;-79
2022/11/07 08:48:09;;;;;;;7.27;3.10;;;12.20;99.90;;;;;;5052779;28;20429;-74
2022/11/07 08:50:35;;;;;;;3.43;2.60;;;12.20;99.90;;;;;;5053530;28;20399;-78
2022/11/07 08:53:01;;;;;;;5.37;2.97;;;12.30;99.90;;;;;;5053449;28;20174;-79
2022/11/07 08:55:29;;;;;;;10.63;3.47;;;12.30;99.90;;;;;;5052218;28;20705;-79
2022/11/07 08:57:59;;;;;;;4.00;3.00;;;12.30;99.90;;;;;;5051567;28;20527;-79
2022/11/07 09:00:24;;;;;;;4.60;3.40;;;12.30;99.90;;;;;;5053348;28;20467;-79
2022/11/07 09:02:50;;;;;;;8.80;3.50;;;12.30;99.90;;;;;;5053344;28;20392;-79
2022/11/07 09:05:19;;;;;;;8.93;3.97;;;12.40;99.90;;;;;;5052132;28;20217;-77
2022/11/07 09:07:45;;;;;;;12.43;3.67;;;12.40;99.90;;;;;;5052422;28;20814;-78
2022/11/07 09:10:10;;;;;;;7.47;3.50;;;12.40;99.90;;;;;;5033552;28;20402;-74
2022/11/07 09:12:46;;;;;;;6.17;3.20;;;12.40;99.90;;;;;;5036510;28;20179;-74
2022/11/07 09:15:13;;;;;;;7.13;2.73;;;12.50;99.90;;;;;;5052216;28;20474;-74
2022/11/07 09:17:39;;;;;;;9.93;3.53;;;12.50;99.90;;;;;;5051779;28;20400;-78
2022/11/07 09:20:05;;;;;;;3.83;3.20;;;12.50;99.90;;;;;;5051735;28;20524;-75
2022/11/07 09:22:30;;;;;;;5.83;2.43;;;12.50;99.90;;;;;;5053571;28;20463;-75
2022/11/07 09:24:56;;;;;;;4.60;3.60;;;12.50;99.90;;;;;;5056435;28;20852;-81
2022/11/07 09:27:22;;;;;;;5.73;3.10;;;12.50;99.90;;;;;;5057269;28;20251;-74
2022/11/07 09:29:47;;;;;;;5.10;2.80;;;12.60;99.90;;;;;;5056351;28;20513;-81
2022/11/07 09:32:13;;;;;;;5.17;3.77;;;12.60;99.90;;;;;;5057249;28;20261;-73
2022/11/07 09:34:39;;;;;;;4.40;3.13;;;12.70;99.90;;;;;;5054456;28;20245;-79
2022/11/07 09:37:05;;;;;;;8.40;3.30;;;12.90;99.90;;;;;;5055865;28;20199;-73
2022/11/07 09:39:31;;;;;;;8.10;3.57;;;12.90;99.90;;;;;;5056213;28;20179;-73
2022/11/07 09:42:29;;;;;;;9.10;3.50;;;12.80;99.90;;;;;;5057005;28;20401;-73
2022/11/07 09:44:59;;;;;;;5.20;2.63;;;12.80;99.90;;;;;;5055056;28;20412;-75
2022/11/07 09:47:28;;;;;;;14.23;3.87;;;12.80;99.90;;;;;;5056815;28;20491;-78
2022/11/07 09:50:06;;;;;;;10.17;4.60;;;12.90;99.90;;;;;;5055865;28;20444;-79
2022/11/07 09:53:07;;;;;;;11.40;3.70;;;12.90;99.90;;;;;;5056393;28;20743;-74
2022/11/07 09:55:52;;;;;;;7.40;3.20;;;12.90;99.90;;;;;;5055625;28;20449;-74
2022/11/07 09:58:35;;;;;;;6.57;3.40;;;13.10;99.90;;;;;;5055040;28;20408;-74
2022/11/07 10:01:10;;;;;;;5.70;2.90;;;13.20;99.90;;;;;;5056570;28;20413;-79
2022/11/07 10:03:37;;;;;;;3.63;2.70;;;13.30;99.90;;;;;;5070372;28;20523;-80
2022/11/07 10:06:17;;;;;;;10.40;2.97;;;13.30;99.90;;;;;;5055070;28;20441;-80
2022/11/07 10:08:57;;;;;;;5.97;2.90;;;13.40;99.90;;;;;;5056088;28;20417;-72
2022/11/07 10:11:49;;;;;;;10.23;3.43;;;13.40;99.90;;;;;;5055708;28;20923;-74
2022/11/07 10:14:27;;;;;;;4.53;2.93;;;13.50;99.90;;;;;;5054658;28;20501;-79
2022/11/07 10:17:14;;;;;;;2.90;2.70;;;13.50;93.70;;;;;;5054407;28;20519;-73
2022/11/07 10:20:04;;;;;;;7.33;2.73;;;13.50;94.80;;;;;;5056342;28;20397;-79
2022/11/07 10:23:10;;;;;;;3.30;3.00;;;13.60;98.20;;;;;;5054967;28;20403;-79
2022/11/07 10:25:48;;;;;;;4.33;2.50;;;13.60;93.30;;;;;;5054883;28;20523;-76
2022/11/07 10:28:19;;;;;;;5.90;3.37;;;13.50;93.50;;;;;;5056088;28;20375;-78
2022/11/07 10:30:49;;;;;;;3.93;3.13;;;13.50;93.30;;;;;;5056115;28;20382;-74
2022/11/07 10:33:46;;;;;;;8.33;3.10;;;13.60;93.30;;;;;;5055816;28;20461;-74
2022/11/07 10:36:26;;;;;;;7.17;2.70;;;13.60;93.30;;;;;;5055271;28;20438;-75
2022/11/07 10:38:52;;;;;;;3.53;2.43;;;13.60;93.30;;;;;;5055997;28;20368;-79
2022/11/07 10:41:25;;;;;;;2.60;2.37;;;13.70;93.40;;;;;;5056751;28;20407;-74
2022/11/07 10:44:06;;;;;;;5.97;2.93;;;13.70;93.40;;;;;;5065154;28;20844;-78
2022/11/07 10:46:44;;;;;;;3.13;2.93;;;13.70;93.40;;;;;;5055545;28;20503;-74
2022/11/07 10:49:22;;;;;;;7.87;2.90;;;13.50;93.30;;;;;;5067622;28;20891;-80
2022/11/07 10:51:48;;;;;;;5.70;2.67;;;13.30;93.10;;;;;;5056666;28;20516;-79
2022/11/07 10:54:30;;;;;;;5.43;2.97;;;13.30;93.20;;;;;;5054338;28;20423;-73
2022/11/07 10:57:05;;;;;;;4.03;3.53;;;13.30;93.10;;;;;;5055591;28;20429;-78
2022/11/07 10:59:32;;;;;;;8.57;3.70;;;13.40;91.60;;;;;;5053277;28;20403;-78
2022/11/07 11:02:00;;;;;;;6.60;3.03;;;13.40;93.20;;;;;;5054087;28;20407;-76
2022/11/07 11:04:31;;;;;;;8.30;3.03;;;13.50;91.70;;;;;;5054298;28;20433;-74
2022/11/07 11:07:05;;;;;;;3.83;2.50;;;13.50;91.20;;;;;;5055284;28;20388;-81
2022/11/07 11:09:34;;;;;;;7.70;3.30;;;13.50;91.60;;;;;;5055322;28;20401;-81
2022/11/07 11:12:10;;;;;;;3.63;2.43;;;13.50;93.30;;;;;;5054465;28;20494;-79
2022/11/07 11:14:36;;;;;;;3.80;2.77;;;13.50;93.20;;;;;;5033266;28;20429;-77
2022/11/07 11:17:02;;;;;;;8.83;2.83;;;13.50;92.50;;;;;;5035393;28;20954;-79
2022/11/07 11:19:55;;;;;;;3.00;2.70;;;13.50;83.40;;;;;;5035036;28;20171;-80
2022/11/07 11:22:23;;;;;;;4.83;2.43;;;13.50;89.30;;;;;;5051139;28;20412;-75
2022/11/07 11:25:19;;;;;;;2.67;2.30;;;13.40;91.60;;;;;;5054158;28;21118;-74
2022/11/07 11:27:47;;;;;;;7.50;2.83;;;13.40;92.80;;;;;;5055275;28;20376;-79
2022/11/07 11:30:21;;;;;;;2.97;2.73;;;13.30;92.50;;;;;;5054617;28;20376;-78
2022/11/07 11:32:58;;;;;;;8.97;3.40;;;13.40;91.90;;;;;;5034964;28;20808;-76
2022/11/07 11:35:48;;;;;;;3.87;2.47;;;13.50;93.30;;;;;;5033874;28;20432;-78
2022/11/07 11:38:24;;;;;;;2.60;2.40;;;13.60;93.20;;;;;;5036526;28;20429;-79
2022/11/07 11:40:55;;;;;;;3.50;2.57;;;13.60;92.80;;;;;;5053126;28;20424;-73
2022/11/07 11:43:24;;;;;;;10.67;3.40;;;13.70;93.10;;;;;;5054704;28;20368;-78
2022/11/07 11:46:27;;;;;;;5.40;3.00;;;13.70;92.30;;;;;;5053086;28;20399;-78
2022/11/07 11:49:04;;;;;;;5.43;3.10;;;13.70;90.00;;;;;;5054644;28;20398;-73
2022/11/07 11:51:40;;;;;;;4.07;2.67;;;13.70;93.00;;;;;;5053715;28;20433;-79
2022/11/07 11:54:10;;;;;;;5.60;3.17;;;13.70;93.40;;;;;;5053087;28;20460;-74
2022/11/07 11:56:52;;;;;;;2.83;2.63;;;13.70;93.40;;;;;;5054354;28;20395;-78
2022/11/07 11:59:39;;;;;;;6.57;2.90;;;13.60;93.30;;;;;;5053804;28;20473;-78
2022/11/07 12:02:39;;;;;;;4.37;2.77;;;13.60;93.30;;;;;;5052303;28;20432;-77
2022/11/07 12:05:16;;;;;;;10.57;3.00;;;13.50;93.30;;;;;;5053510;28;20406;-73
2022/11/07 12:07:50;;;;;;;6.27;3.30;;;13.50;92.80;;;;;;5052657;28;20491;-73
2022/11/07 12:10:29;;;;;;;3.73;2.57;;;13.50;93.30;;;;;;5053207;28;20455;-72
2022/11/07 12:13:12;;;;;;;3.67;2.93;;;13.50;93.30;;;;;;5053570;28;20376;-78
2022/11/07 12:16:10;;;;;;;4.80;2.50;;;13.60;93.30;;;;;;5053047;28;20457;-79
2022/11/07 12:19:00;;;;;;;7.60;3.20;;;13.70;93.40;;;;;;5000734;28;20385;-80
2022/11/07 12:21:28;;;;;;;3.23;2.50;;;13.80;93.40;;;;;;5049814;28;20381;-79
2022/11/07 12:24:03;;;;;;;7.70;3.40;;;13.70;93.10;;;;;;5032985;28;20370;-73
2022/11/07 12:26:59;;;;;;;5.37;3.00;;;13.70;93.40;;;;;;5040403;28;20553;-74
2022/11/07 12:29:49;;;;;;;5.20;3.10;;;13.60;93.30;;;;;;5053939;28;20372;-73
2022/11/07 12:32:25;;;;;;;7.23;3.00;;;13.60;93.30;;;;;;5052285;28;20396;-74
2022/11/07 12:35:02;;;;;;;6.23;2.70;;;13.60;93.30;;;;;;5052718;28;20479;-78
2022/11/07 12:37:59;;;;;;;6.87;3.10;;;13.50;93.40;;;;;;5050895;28;20795;-78
2022/11/07 12:40:33;;;;;;;4.43;2.90;;;13.50;93.30;;;;;;5052132;28;20399;-79
2022/11/07 12:43:13;;;;;;;4.17;2.70;;;13.50;93.30;;;;;;5053569;28;20373;-73
2022/11/07 12:46:10;;;;;;;3.70;3.10;;;13.50;93.30;;;;;;5052679;28;20437;-78
2022/11/07 12:48:54;;;;;;;3.73;2.97;;;13.50;93.30;;;;;;5052313;28;20404;-80
2022/11/07 12:51:54;;;;;;;9.63;4.13;;;13.60;93.40;;;;;;5053462;28;20884;-80
2022/11/07 12:54:42;;;;;;;7.87;3.30;;;13.60;93.30;;;;;;5052606;28;20419;-80
2022/11/07 12:57:32;;;;;;;5.43;3.30;;;13.70;94.40;;;;;;5052039;28;20540;-80
2022/11/07 13:00:14;;;;;;;7.07;3.50;;;13.60;93.40;;;;;;5053507;28;20373;-79
2022/11/07 13:03:07;;;;;;;13.63;3.90;;;13.50;93.30;;;;;;5056795;28;20427;-75
2022/11/07 13:05:42;;;;;;;3.83;3.07;;;13.50;94.00;;;;;;5051932;28;20481;-73
2022/11/07 13:08:28;;;;;;;5.43;3.53;;;13.50;93.60;;;;;;5053242;28;20371;-73
2022/11/07 13:10:54;;;;;;;6.00;3.40;;;13.30;93.30;;;;;;5053187;28;20463;-78
2022/11/07 13:13:26;;;;;;;6.40;3.27;;;13.30;96.20;;;;;;5051885;28;20508;-75
2022/11/07 13:15:52;;;;;;;10.83;4.20;;;13.30;94.50;;;;;;5051007;28;20213;-74
2022/11/07 13:18:25;;;;;;;8.33;2.87;;;13.40;99.80;;;;;;5053360;28;20376;-79